Maulden, Kentucky
Current Conditions -  °F | °C
As of 9:53 PM on Thursday 27 Nov 2014 (Local Time) from KLOZ Reporting Station
Overcast Overcast  
Wind Chill: -6°   Ceiling: 2900
Heat Index: -1°   Visibility: 10mi
Dew Point: -6°   Wind: 10mph
Humidity: 72%   Direction: 290°WNW
Pressure: 30.4"   Gusts: NA
Location:  37.346°N, 83.8503°W
Report Text: KLOZ 280253Z AUTO 29009KT 10SM FEW016 OVC029 M01/M06 A3040 RMK AO2 SLP303 T10111056 53005
Loading
Personal Weather Stations






























Interactive Weather Map New forecast layout! Learn more

10-Day Weather Forecast

Advertisements
Track Severe Weather on mobile